Time;durP1;ratioP1;P1;durP2;ratioP2;P2;SDS_P1;SDS_P2;PMS_P1;PMS_P2;Temp;Humidity;BMP_temperature;BMP_pressure;BME280_temperature;BME280_humidity;BME280_pressure;Samples;Min_cycle;Max_cycle;Signal;HPM_P1;HPM_P2
2023/09/14 00:01:23;;;;;;;15.27;11.77;;;19.20;33.70;;;;;;5005777;28;20844;-63
2023/09/14 00:03:52;;;;;;;19.67;13.20;;;19.20;34.30;;;;;;5007928;28;20514;-63
2023/09/14 00:06:18;;;;;;;16.43;13.27;;;19.30;33.70;;;;;;5007886;28;20463;-65
2023/09/14 00:08:46;;;;;;;17.93;12.67;;;19.30;33.60;;;;;;5006192;28;20471;-63
2023/09/14 00:11:13;;;;;;;14.67;11.63;;;19.30;33.80;;;;;;5005821;28;20474;-63
2023/09/14 00:13:40;;;;;;;14.87;12.03;;;19.30;33.70;;;;;;5007603;28;20554;-62
2023/09/14 00:16:07;;;;;;;16.43;12.07;;;19.30;33.50;;;;;;5004854;28;20464;-63
2023/09/14 00:18:34;;;;;;;16.37;12.60;;;19.30;33.50;;;;;;5007908;28;20487;-63
2023/09/14 00:21:01;;;;;;;18.70;12.20;;;19.30;33.40;;;;;;5005656;28;20482;-63
2023/09/14 00:23:27;;;;;;;14.23;11.87;;;19.30;33.50;;;;;;5008106;28;20495;-65
2023/09/14 00:25:55;;;;;;;15.83;12.00;;;19.30;33.40;;;;;;5005300;28;20991;-63
2023/09/14 00:28:22;;;;;;;16.10;12.30;;;19.30;33.30;;;;;;5004696;28;20478;-63
2023/09/14 00:30:52;;;;;;;14.60;11.40;;;19.30;33.40;;;;;;5005627;28;20860;-63
2023/09/14 00:33:18;;;;;;;15.73;11.70;;;19.30;33.50;;;;;;5004796;28;20503;-63
2023/09/14 00:35:47;;;;;;;14.70;11.50;;;19.30;33.40;;;;;;5007855;28;20471;-63
2023/09/14 00:38:14;;;;;;;13.77;11.20;;;19.30;33.40;;;;;;4998286;28;20871;-63
2023/09/14 00:40:40;;;;;;;16.47;13.07;;;19.30;33.50;;;;;;5002984;28;21039;-65
2023/09/14 00:43:08;;;;;;;17.00;13.30;;;19.30;33.40;;;;;;5006847;28;20467;-65
2023/09/14 00:45:36;;;;;;;16.97;13.00;;;19.30;33.40;;;;;;5006804;28;20559;-63
2023/09/14 00:48:03;;;;;;;14.77;12.53;;;19.30;33.30;;;;;;5006629;28;20459;-65
2023/09/14 00:50:31;;;;;;;15.90;12.27;;;19.30;33.50;;;;;;5007099;28;20935;-65
2023/09/14 00:53:02;;;;;;;15.07;11.90;;;19.30;33.50;;;;;;5006213;28;20968;-65
2023/09/14 00:55:30;;;;;;;15.90;12.60;;;19.20;33.40;;;;;;5006824;28;20551;-64
2023/09/14 00:57:57;;;;;;;15.80;12.40;;;19.20;33.50;;;;;;5006063;28;20468;-64
2023/09/14 01:00:26;;;;;;;16.13;12.30;;;19.20;33.50;;;;;;5005401;28;20502;-64
2023/09/14 01:02:54;;;;;;;15.70;12.43;;;19.20;33.40;;;;;;5003504;28;20455;-64
2023/09/14 01:05:22;;;;;;;15.83;13.00;;;19.20;33.50;;;;;;5004386;28;20488;-64
2023/09/14 01:07:48;;;;;;;15.53;12.60;;;19.20;33.50;;;;;;5007684;28;20471;-63
2023/09/14 01:10:15;;;;;;;18.17;13.13;;;19.10;33.40;;;;;;5005316;28;20472;-65
2023/09/14 01:12:43;;;;;;;17.37;12.20;;;19.10;33.40;;;;;;5008455;28;20498;-63
2023/09/14 01:15:15;;;;;;;18.37;13.10;;;19.10;33.40;;;;;;5004510;28;21004;-63
2023/09/14 01:17:53;;;;;;;17.33;14.60;;;19.00;33.30;;;;;;5004770;28;21007;-65
2023/09/14 01:20:59;;;;;;;17.17;13.93;;;19.00;33.50;;;;;;5005591;28;20467;-63
2023/09/14 01:23:35;;;;;;;15.20;11.97;;;19.00;33.80;;;;;;5001297;28;20484;-63
2023/09/14 01:26:04;;;;;;;16.37;12.97;;;18.90;33.70;;;;;;5004285;28;20482;-63
2023/09/14 01:28:31;;;;;;;15.30;12.07;;;18.90;33.70;;;;;;5004643;28;20478;-64
2023/09/14 01:30:58;;;;;;;18.60;12.93;;;18.90;33.70;;;;;;5006384;28;20474;-65
2023/09/14 01:33:27;;;;;;;16.53;13.00;;;18.90;33.80;;;;;;5003677;28;20498;-63
2023/09/14 01:36:00;;;;;;;21.50;14.07;;;18.90;33.80;;;;;;5002113;28;20466;-63
2023/09/14 01:38:29;;;;;;;15.20;12.87;;;18.90;34.00;;;;;;5007227;28;20480;-63
2023/09/14 01:40:56;;;;;;;16.73;13.83;;;18.80;34.00;;;;;;5001160;28;20480;-63
2023/09/14 01:43:25;;;;;;;15.93;12.60;;;18.90;34.00;;;;;;5002800;28;20802;-63
2023/09/14 01:45:52;;;;;;;15.67;13.80;;;18.80;33.90;;;;;;5003743;28;20464;-63
2023/09/14 01:48:20;;;;;;;17.90;13.10;;;18.80;34.00;;;;;;5007026;28;20471;-65
2023/09/14 01:50:47;;;;;;;18.43;13.07;;;18.80;33.90;;;;;;5002253;28;20603;-63
2023/09/14 01:53:14;;;;;;;15.70;11.50;;;18.80;33.80;;;;;;4999269;28;23217;-63
2023/09/14 01:55:41;;;;;;;14.93;12.03;;;18.80;33.90;;;;;;5007296;28;21320;-66
2023/09/14 01:58:07;;;;;;;17.90;11.80;;;18.80;33.80;;;;;;5005014;28;20471;-63
2023/09/14 02:00:35;;;;;;;16.50;12.17;;;18.80;33.40;;;;;;5005219;28;20475;-64
2023/09/14 02:03:02;;;;;;;19.10;13.00;;;18.80;33.80;;;;;;5004434;28;20467;-63
2023/09/14 02:05:29;;;;;;;16.10;11.27;;;18.80;33.80;;;;;;5005012;28;20483;-63
2023/09/14 02:07:56;;;;;;;14.30;11.80;;;18.80;33.90;;;;;;5005127;28;20471;-63
2023/09/14 02:10:22;;;;;;;14.60;11.70;;;18.80;34.00;;;;;;4998882;28;20471;-63
2023/09/14 02:12:49;;;;;;;19.47;12.60;;;18.80;33.90;;;;;;5003988;28;20476;-65
2023/09/14 02:15:17;;;;;;;15.90;13.50;;;18.80;34.00;;;;;;5004030;28;20821;-63
2023/09/14 02:17:45;;;;;;;15.73;12.90;;;18.80;33.90;;;;;;5008599;28;20533;-63
2023/09/14 02:20:12;;;;;;;15.90;11.90;;;18.80;33.80;;;;;;5006765;28;20483;-63
2023/09/14 02:22:39;;;;;;;16.40;13.30;;;18.80;33.70;;;;;;5007173;28;20501;-65
2023/09/14 02:25:06;;;;;;;14.90;12.67;;;18.80;33.70;;;;;;5007272;28;20486;-63
2023/09/14 02:27:35;;;;;;;17.20;12.70;;;18.80;33.80;;;;;;5009777;28;20976;-64
2023/09/14 02:30:03;;;;;;;15.43;12.27;;;18.80;33.80;;;;;;5009065;28;20482;-63
2023/09/14 02:32:30;;;;;;;14.80;12.60;;;18.80;33.60;;;;;;5006908;28;20988;-63
2023/09/14 02:34:58;;;;;;;15.70;12.67;;;18.80;33.60;;;;;;5009309;28;20487;-63
2023/09/14 02:37:24;;;;;;;15.67;12.20;;;18.80;33.50;;;;;;5009718;28;20487;-63
2023/09/14 02:39:51;;;;;;;15.03;12.47;;;18.80;33.60;;;;;;5007855;28;20479;-63
2023/09/14 02:42:18;;;;;;;16.50;12.70;;;18.80;33.70;;;;;;5009336;28;20831;-63
2023/09/14 02:44:45;;;;;;;14.10;11.40;;;18.80;33.60;;;;;;5005529;28;20503;-63
2023/09/14 02:47:11;;;;;;;17.33;12.60;;;18.80;33.40;;;;;;5006715;28;20499;-63
2023/09/14 02:49:38;;;;;;;15.37;11.80;;;18.80;33.40;;;;;;5009694;28;20813;-63
2023/09/14 02:52:06;;;;;;;14.83;12.30;;;18.80;33.40;;;;;;5008500;28;20534;-63
2023/09/14 02:54:33;;;;;;;15.23;12.30;;;18.80;33.30;;;;;;5004481;28;20491;-63
2023/09/14 02:57:00;;;;;;;15.50;11.90;;;18.80;33.30;;;;;;5008082;28;20474;-63
2023/09/14 02:59:26;;;;;;;14.53;12.63;;;18.80;33.40;;;;;;5001862;28;20461;-63
2023/09/14 03:01:54;;;;;;;13.60;11.57;;;18.80;33.40;;;;;;5005525;28;20480;-63
2023/09/14 03:04:20;;;;;;;14.50;11.50;;;18.80;33.40;;;;;;5006593;28;20939;-63
2023/09/14 03:06:47;;;;;;;21.17;11.87;;;18.80;33.50;;;;;;5009403;28;20543;-63
2023/09/14 03:09:15;;;;;;;15.57;12.70;;;18.70;33.50;;;;;;5009489;28;20467;-63
2023/09/14 03:11:42;;;;;;;18.03;12.43;;;18.70;33.50;;;;;;5009016;28;20542;-63
2023/09/14 03:14:09;;;;;;;15.23;12.30;;;18.80;33.40;;;;;;5008214;28;20491;-63
2023/09/14 03:16:36;;;;;;;15.37;12.47;;;18.70;33.50;;;;;;5008252;28;20468;-63
2023/09/14 03:19:03;;;;;;;19.90;12.87;;;18.70;33.50;;;;;;5006844;28;20463;-63
2023/09/14 03:21:30;;;;;;;15.23;11.90;;;18.70;33.60;;;;;;5005396;28;20467;-63
2023/09/14 03:23:57;;;;;;;15.10;11.40;;;18.70;33.60;;;;;;5007096;28;21021;-63
2023/09/14 03:26:27;;;;;;;16.23;12.20;;;18.70;33.50;;;;;;5003059;28;20468;-63
2023/09/14 03:28:54;;;;;;;18.87;12.67;;;18.70;33.50;;;;;;5006247;28;20490;-65
2023/09/14 03:31:21;;;;;;;15.87;12.90;;;18.70;33.50;;;;;;5005046;28;20486;-65
2023/09/14 03:33:48;;;;;;;15.87;12.67;;;18.70;33.40;;;;;;5005842;28;20488;-64
2023/09/14 03:36:16;;;;;;;16.23;12.10;;;18.70;33.50;;;;;;5008352;28;21184;-64
2023/09/14 03:38:43;;;;;;;16.70;12.73;;;18.70;33.70;;;;;;5008766;28;20490;-64
2023/09/14 03:41:10;;;;;;;14.17;12.53;;;18.80;33.60;;;;;;5008630;28;20459;-64
2023/09/14 03:43:38;;;;;;;16.50;12.70;;;18.80;33.60;;;;;;5007555;28;21022;-63
2023/09/14 03:46:05;;;;;;;17.30;12.50;;;18.80;33.50;;;;;;5007569;28;20479;-63
2023/09/14 03:48:32;;;;;;;18.87;12.90;;;18.80;33.40;;;;;;5007896;28;20470;-63
2023/09/14 03:51:00;;;;;;;20.37;12.90;;;18.80;33.40;;;;;;5008400;28;20470;-63
2023/09/14 03:53:27;;;;;;;15.43;12.03;;;18.80;33.20;;;;;;5006850;28;21078;-64
2023/09/14 03:55:54;;;;;;;17.40;13.07;;;18.80;33.20;;;;;;5008620;28;20467;-65
2023/09/14 03:58:21;;;;;;;14.10;12.60;;;18.80;33.10;;;;;;5007084;28;20468;-65
2023/09/14 04:00:49;;;;;;;14.90;11.80;;;18.80;33.00;;;;;;5001159;28;20484;-64
2023/09/14 04:03:17;;;;;;;13.40;11.23;;;18.80;32.90;;;;;;5000703;28;21195;-65
2023/09/14 04:05:43;;;;;;;13.50;11.60;;;18.90;33.30;;;;;;5006752;28;20463;-64
2023/09/14 04:08:10;;;;;;;14.00;11.67;;;18.90;32.60;;;;;;5005916;28;20489;-68
2023/09/14 04:10:38;;;;;;;14.13;12.10;;;18.90;32.50;;;;;;5009928;28;20955;-68
2023/09/14 04:13:28;;;;;;;15.30;11.60;;;18.90;32.30;;;;;;5007175;28;20539;-68
2023/09/14 04:15:57;;;;;;;14.20;11.30;;;18.90;32.50;;;;;;5003425;28;21026;-68
2023/09/14 04:18:24;;;;;;;18.47;12.43;;;18.90;32.20;;;;;;5006169;28;21025;-69
2023/09/14 04:20:51;;;;;;;16.60;12.37;;;19.00;32.00;;;;;;5006016;28;20467;-68
2023/09/14 04:23:18;;;;;;;17.70;13.63;;;19.00;32.00;;;;;;5003259;28;20487;-70
2023/09/14 04:25:46;;;;;;;15.90;12.30;;;19.00;32.00;;;;;;5003496;28;21209;-69
2023/09/14 04:28:13;;;;;;;16.33;12.87;;;19.00;31.90;;;;;;5005443;28;20586;-68
2023/09/14 04:30:43;;;;;;;15.90;12.93;;;18.90;31.80;;;;;;5005575;28;20467;-68
2023/09/14 04:33:11;;;;;;;15.43;13.50;;;19.00;31.60;;;;;;5001440;28;20478;-70
2023/09/14 04:35:38;;;;;;;17.80;13.87;;;19.00;31.50;;;;;;5001171;28;20500;-69
2023/09/14 04:38:05;;;;;;;14.87;12.83;;;19.00;31.50;;;;;;5004650;28;20471;-68
2023/09/14 04:40:32;;;;;;;18.17;13.50;;;19.00;31.40;;;;;;5003502;28;20494;-68
2023/09/14 04:43:00;;;;;;;16.67;13.30;;;19.00;31.60;;;;;;5006495;28;20787;-67
2023/09/14 04:45:26;;;;;;;15.17;13.57;;;19.00;31.50;;;;;;5019532;23;20470;-66
2023/09/14 04:47:53;;;;;;;15.97;13.90;;;19.00;31.50;;;;;;4983841;28;20477;-70
2023/09/14 04:50:21;;;;;;;19.20;13.73;;;19.00;31.60;;;;;;4982508;28;20469;-69
2023/09/14 04:52:48;;;;;;;22.07;13.83;;;19.00;31.60;;;;;;4983577;28;20465;-68
2023/09/14 04:55:15;;;;;;;19.87;15.70;;;19.00;31.80;;;;;;4982791;28;20488;-70
2023/09/14 04:57:41;;;;;;;16.70;13.67;;;19.00;31.80;;;;;;4983470;28;20476;-69
2023/09/14 05:00:10;;;;;;;16.53;13.40;;;19.00;31.80;;;;;;4985977;28;20946;-69
2023/09/14 05:02:37;;;;;;;19.63;14.10;;;19.00;31.80;;;;;;4982065;28;20887;-70
2023/09/14 05:05:04;;;;;;;16.97;13.93;;;19.00;31.80;;;;;;4981318;28;20484;-71
2023/09/14 05:07:32;;;;;;;19.67;13.80;;;19.00;32.00;;;;;;4982861;28;20487;-70
2023/09/14 05:09:58;;;;;;;21.33;16.07;;;19.00;31.90;;;;;;4984817;28;20469;-70
2023/09/14 05:12:25;;;;;;;18.53;15.67;;;19.00;32.00;;;;;;4985960;28;20555;-70
2023/09/14 05:14:52;;;;;;;18.63;13.67;;;19.00;31.90;;;;;;4984708;28;20514;-70
2023/09/14 05:17:19;;;;;;;19.77;14.20;;;19.00;32.00;;;;;;4984898;28;20481;-70
2023/09/14 05:19:45;;;;;;;20.83;14.40;;;19.00;32.00;;;;;;4987939;28;20465;-70
2023/09/14 05:22:12;;;;;;;18.67;16.30;;;19.00;32.00;;;;;;4984930;28;20488;-71
2023/09/14 05:24:40;;;;;;;20.83;15.13;;;19.00;31.90;;;;;;4985593;28;20480;-70
2023/09/14 05:27:07;;;;;;;19.23;14.67;;;19.00;32.00;;;;;;4985098;28;21273;-69
2023/09/14 05:29:34;;;;;;;20.27;16.27;;;19.10;32.10;;;;;;4980233;28;20468;-69
2023/09/14 05:32:01;;;;;;;19.73;17.13;;;19.10;32.20;;;;;;4982406;28;20508;-68
2023/09/14 05:34:28;;;;;;;21.00;17.17;;;19.10;32.20;;;;;;4981824;28;20611;-68
2023/09/14 05:36:55;;;;;;;18.03;15.67;;;19.10;32.30;;;;;;4985232;28;20485;-68
2023/09/14 05:39:21;;;;;;;22.77;18.40;;;19.10;32.10;;;;;;4984155;28;20463;-68
2023/09/14 05:41:50;;;;;;;20.87;17.37;;;19.20;32.00;;;;;;4990893;28;20962;-68
2023/09/14 05:44:17;;;;;;;22.43;16.80;;;19.20;31.90;;;;;;4984892;28;20871;-68
2023/09/14 05:46:44;;;;;;;18.70;16.77;;;19.20;31.80;;;;;;4985893;28;20465;-68
2023/09/14 05:49:10;;;;;;;18.67;16.00;;;19.20;31.90;;;;;;4984660;28;20469;-68
2023/09/14 05:51:37;;;;;;;18.67;15.50;;;19.20;31.80;;;;;;4987397;28;20464;-70
2023/09/14 05:54:04;;;;;;;19.07;15.93;;;19.30;31.80;;;;;;4985899;28;20491;-69
2023/09/14 05:56:33;;;;;;;23.90;17.40;;;19.30;31.80;;;;;;4988192;28;20472;-68
2023/09/14 05:59:01;;;;;;;21.20;16.83;;;19.30;31.80;;;;;;4986227;28;20468;-68
2023/09/14 06:01:28;;;;;;;20.50;16.30;;;19.30;31.70;;;;;;4980503;28;20539;-69
2023/09/14 06:03:55;;;;;;;18.77;15.93;;;19.40;31.80;;;;;;4984178;28;20485;-69
2023/09/14 06:06:22;;;;;;;20.27;16.70;;;19.40;31.70;;;;;;4986422;28;20471;-69
2023/09/14 06:08:48;;;;;;;18.27;15.47;;;19.40;31.70;;;;;;4986260;28;20856;-70
2023/09/14 06:11:15;;;;;;;20.50;16.90;;;19.40;31.80;;;;;;4990771;28;20473;-69
2023/09/14 06:13:42;;;;;;;21.83;17.73;;;19.40;31.80;;;;;;4986853;28;20860;-73
2023/09/14 06:16:11;;;;;;;20.13;17.03;;;19.40;31.80;;;;;;4988497;28;20496;-68
2023/09/14 06:18:37;;;;;;;20.53;17.20;;;19.40;31.60;;;;;;4987115;28;20607;-69
2023/09/14 06:21:04;;;;;;;20.13;17.03;;;19.50;31.50;;;;;;4981637;28;20465;-69
2023/09/14 06:23:31;;;;;;;20.27;18.03;;;19.50;31.60;;;;;;4984351;28;20484;-71
2023/09/14 06:25:58;;;;;;;20.27;16.13;;;19.50;31.60;;;;;;4988414;28;21269;-70
2023/09/14 06:28:24;;;;;;;18.83;16.80;;;19.60;31.60;;;;;;4987648;28;20477;-69
2023/09/14 06:30:51;;;;;;;20.40;16.33;;;19.60;31.50;;;;;;4987887;28;20833;-69
2023/09/14 06:33:19;;;;;;;19.83;15.60;;;19.60;31.30;;;;;;4984676;28;20496;-67
2023/09/14 06:35:46;;;;;;;18.87;16.17;;;19.60;31.40;;;;;;4985188;28;20543;-68
2023/09/14 06:38:12;;;;;;;19.63;16.97;;;19.60;31.40;;;;;;4982574;28;20480;-67
2023/09/14 06:40:40;;;;;;;23.83;15.67;;;19.60;31.30;;;;;;4987335;28;21187;-67
2023/09/14 06:43:07;;;;;;;22.57;16.90;;;19.70;31.30;;;;;;4987435;28;20457;-67
2023/09/14 06:45:34;;;;;;;19.33;15.67;;;19.70;31.00;;;;;;4987026;28;20464;-68
2023/09/14 06:48:01;;;;;;;21.20;17.00;;;19.70;31.00;;;;;;4986361;28;20531;-68
2023/09/14 06:50:29;;;;;;;21.93;17.60;;;19.70;30.80;;;;;;4985738;28;20479;-68
2023/09/14 06:52:56;;;;;;;17.87;15.43;;;19.70;30.90;;;;;;4987086;28;20514;-68
2023/09/14 06:55:23;;;;;;;20.13;16.83;;;19.70;30.80;;;;;;4985523;28;20504;-67
2023/09/14 06:57:49;;;;;;;20.43;16.10;;;19.70;30.80;;;;;;4973418;28;20472;-68
2023/09/14 07:00:20;;;;;;;23.83;16.70;;;19.80;30.70;;;;;;4978330;28;20483;-67
2023/09/14 07:02:48;;;;;;;18.90;16.30;;;19.80;30.60;;;;;;4982732;28;20472;-70
2023/09/14 07:05:15;;;;;;;17.50;15.53;;;19.80;30.50;;;;;;4980349;28;20507;-70
2023/09/14 07:07:43;;;;;;;21.33;17.90;;;19.80;30.50;;;;;;4985665;28;20481;-69
2023/09/14 07:10:10;;;;;;;21.50;16.77;;;19.70;30.30;;;;;;4989191;28;20465;-70
2023/09/14 07:12:37;;;;;;;22.90;16.40;;;19.70;30.20;;;;;;4986639;28;20852;-70
2023/09/14 07:15:05;;;;;;;18.47;16.20;;;19.70;30.10;;;;;;4985518;28;20493;-69
2023/09/14 07:17:31;;;;;;;19.60;16.70;;;19.70;30.30;;;;;;4986675;28;20852;-68
2023/09/14 07:19:58;;;;;;;20.10;16.63;;;19.70;30.30;;;;;;4986663;28;20476;-68
2023/09/14 07:22:25;;;;;;;21.70;17.40;;;19.70;30.40;;;;;;4986485;28;20473;-69
2023/09/14 07:24:54;;;;;;;19.70;16.17;;;19.80;30.30;;;;;;4989259;28;20484;-69
2023/09/14 07:27:22;;;;;;;20.77;17.40;;;19.80;30.10;;;;;;4986813;28;20559;-69
2023/09/14 07:29:49;;;;;;;22.00;18.40;;;19.90;30.00;;;;;;4990903;28;20473;-69
2023/09/14 07:32:16;;;;;;;19.03;16.40;;;19.90;29.80;;;;;;4989975;28;20477;-68
2023/09/14 07:34:43;;;;;;;21.43;15.47;;;20.00;29.60;;;;;;4988472;28;20492;-69
2023/09/14 07:37:09;;;;;;;18.93;15.87;;;20.00;29.50;;;;;;4989141;28;20475;-69
2023/09/14 07:39:36;;;;;;;20.30;16.20;;;20.00;29.10;;;;;;4983421;28;20481;-68
2023/09/14 07:42:04;;;;;;;21.83;16.83;;;19.90;29.10;;;;;;4981394;28;20469;-68
2023/09/14 07:44:31;;;;;;;18.70;16.50;;;19.90;29.20;;;;;;4983443;28;20485;-69
2023/09/14 07:46:58;;;;;;;23.87;18.13;;;19.80;29.50;;;;;;4985859;28;20836;-70
2023/09/14 07:49:25;;;;;;;19.30;17.13;;;19.80;29.40;;;;;;4987721;28;20479;-68
2023/09/14 07:51:51;;;;;;;22.90;17.37;;;19.80;29.50;;;;;;4988917;28;20474;-67
2023/09/14 07:54:18;;;;;;;20.33;17.27;;;19.80;29.80;;;;;;4987187;28;21000;-67
2023/09/14 07:56:46;;;;;;;22.90;16.70;;;19.80;29.90;;;;;;4983928;28;20480;-68
2023/09/14 07:59:14;;;;;;;24.93;17.73;;;19.80;30.00;;;;;;4989103;28;20514;-68
2023/09/14 08:01:41;;;;;;;26.87;17.53;;;19.80;30.10;;;;;;4989925;28;20468;-68
2023/09/14 08:04:08;;;;;;;21.40;17.57;;;19.90;30.00;;;;;;4987532;28;20481;-68
2023/09/14 08:06:34;;;;;;;19.67;17.43;;;20.00;29.70;;;;;;4988849;28;20464;-67
2023/09/14 08:09:02;;;;;;;21.63;18.20;;;20.10;29.30;;;;;;4989009;28;20477;-68
2023/09/14 08:11:29;;;;;;;23.20;18.47;;;20.10;28.90;;;;;;4986444;28;20468;-68
2023/09/14 08:13:55;;;;;;;26.07;19.00;;;20.30;28.70;;;;;;4987489;28;20488;-68
2023/09/14 08:16:25;;;;;;;23.03;17.13;;;20.40;28.60;;;;;;4985754;28;20501;-67
2023/09/14 08:18:53;;;;;;;21.17;17.00;;;20.50;28.60;;;;;;4984406;28;20461;-67
2023/09/14 08:21:19;;;;;;;21.47;17.03;;;20.60;28.00;;;;;;4985360;28;20496;-68
2023/09/14 08:23:46;;;;;;;23.30;17.80;;;20.70;27.60;;;;;;4981528;28;20495;-69
2023/09/14 08:26:13;;;;;;;22.87;18.90;;;20.90;27.30;;;;;;4988247;28;20457;-68
2023/09/14 08:28:40;;;;;;;21.20;18.17;;;21.10;26.80;;;;;;4987317;28;20464;-67
2023/09/14 08:31:07;;;;;;;20.30;17.47;;;21.20;26.30;;;;;;4983185;28;20972;-68
2023/09/14 08:33:35;;;;;;;21.83;17.50;;;21.40;25.70;;;;;;4986020;28;20499;-69
2023/09/14 08:36:02;;;;;;;20.90;17.50;;;21.50;25.00;;;;;;4987832;28;20491;-69
2023/09/14 08:38:28;;;;;;;19.90;17.67;;;21.80;24.40;;;;;;4986078;28;20468;-69
2023/09/14 08:41:00;;;;;;;17.73;14.77;;;22.00;23.20;;;;;;4983256;28;20460;-69
2023/09/14 08:43:27;;;;;;;20.17;15.77;;;22.30;22.50;;;;;;4984976;28;20599;-68
2023/09/14 08:45:55;;;;;;;19.00;14.60;;;22.60;21.30;;;;;;4984903;28;20961;-68
2023/09/14 08:48:24;;;;;;;19.60;17.30;;;22.80;20.00;;;;;;4983887;28;20468;-68
2023/09/14 08:50:54;;;;;;;18.17;14.80;;;22.90;19.10;;;;;;4987525;28;20480;-69
2023/09/14 08:53:21;;;;;;;19.47;16.10;;;23.10;18.90;;;;;;4987119;28;20484;-69
2023/09/14 08:55:48;;;;;;;17.30;15.13;;;23.10;18.50;;;;;;4986966;28;20499;-69
2023/09/14 08:58:16;;;;;;;18.50;15.87;;;23.20;18.40;;;;;;4983736;28;20514;-67
2023/09/14 09:00:44;;;;;;;19.83;15.00;;;23.30;18.00;;;;;;4983435;28;20465;-67
2023/09/14 09:03:12;;;;;;;17.50;15.70;;;23.40;17.80;;;;;;4986552;28;20576;-67
2023/09/14 09:05:39;;;;;;;15.80;13.70;;;23.70;17.30;;;;;;4983647;28;20527;-67
2023/09/14 09:08:08;;;;;;;16.27;13.70;;;24.40;16.60;;;;;;4986878;28;20477;-67
2023/09/14 09:10:36;;;;;;;15.27;12.83;;;25.90;13.90;;;;;;4987788;28;20473;-67
2023/09/14 09:13:04;;;;;;;18.07;15.83;;;27.90;10.10;;;;;;4986341;28;20581;-68
2023/09/14 09:15:32;;;;;;;14.53;12.80;;;29.70;5.70;;;;;;4980186;28;21034;-68
2023/09/14 09:18:05;;;;;;;12.53;10.77;;;30.80;1.70;;;;;;4983866;28;20480;-68
2023/09/14 09:20:33;;;;;;;13.10;11.30;;;32.80;1.00;;;;;;4987721;28;20469;-68
2023/09/14 09:23:01;;;;;;;13.53;11.90;;;34.10;1.00;;;;;;4987487;28;20465;-67
2023/09/14 09:25:30;;;;;;;14.73;13.20;;;34.80;1.00;;;;;;4986253;28;21325;-69
2023/09/14 09:27:58;;;;;;;13.93;12.40;;;35.10;1.00;;;;;;4985138;28;20465;-70
2023/09/14 09:30:30;;;;;;;13.73;12.40;;;34.50;1.00;;;;;;4988044;28;20477;-69
2023/09/14 09:32:57;;;;;;;12.50;11.20;;;34.00;1.00;;;;;;4988508;28;20468;-69
2023/09/14 09:35:25;;;;;;;11.37;9.73;;;33.50;1.00;;;;;;4981301;28;20493;-69
2023/09/14 09:37:52;;;;;;;13.10;11.80;;;32.70;1.00;;;;;;4978430;28;20582;-68
2023/09/14 09:40:21;;;;;;;14.37;11.57;;;31.80;1.00;;;;;;4984760;28;20560;-68
2023/09/14 09:42:50;;;;;;;13.73;11.30;;;31.00;1.00;;;;;;4984386;28;20981;-68
2023/09/14 09:45:19;;;;;;;12.10;10.87;;;30.50;1.00;;;;;;4983313;28;20527;-67
2023/09/14 09:47:47;;;;;;;13.30;10.97;;;30.10;1.00;;;;;;4982799;28;20783;-69
2023/09/14 09:50:15;;;;;;;13.33;10.80;;;29.90;1.00;;;;;;4981678;28;20479;-67
2023/09/14 09:52:44;;;;;;;11.70;10.43;;;29.50;1.00;;;;;;4985551;28;20960;-67
2023/09/14 09:55:18;;;;;;;11.00;9.60;;;29.40;1.00;;;;;;4983598;28;20843;-68
2023/09/14 09:57:52;;;;;;;11.17;9.60;;;29.20;1.00;;;;;;4981067;28;20496;-67
2023/09/14 10:00:20;;;;;;;13.50;10.43;;;28.90;1.00;;;;;;4983720;28;20471;-68
2023/09/14 10:02:47;;;;;;;10.87;9.03;;;28.60;1.00;;;;;;4984458;28;20531;-69
2023/09/14 10:05:14;;;;;;;12.17;9.87;;;28.30;1.00;;;;;;4979188;28;21028;-68
2023/09/14 10:07:42;;;;;;;12.43;9.80;;;27.90;1.00;;;;;;4982637;28;20468;-69
2023/09/14 10:10:10;;;;;;;11.40;10.13;;;27.60;1.00;;;;;;4980606;28;20967;-69
2023/09/14 10:12:39;;;;;;;11.90;9.70;;;27.20;1.50;;;;;;4983821;28;20464;-69
2023/09/14 10:15:09;;;;;;;12.17;9.67;;;26.80;2.90;;;;;;4979225;28;20489;-71
2023/09/14 10:17:36;;;;;;;13.20;9.83;;;26.60;2.90;;;;;;4982686;28;20465;-70
2023/09/14 10:20:09;;;;;;;12.40;10.13;;;26.50;3.20;;;;;;4983383;28;20503;-70
2023/09/14 10:22:37;;;;;;;10.30;8.93;;;26.40;3.50;;;;;;4979659;28;20497;-69
2023/09/14 10:25:06;;;;;;;11.23;9.50;;;26.50;4.00;;;;;;4981703;28;20488;-68
2023/09/14 10:27:34;;;;;;;12.10;10.17;;;26.60;3.60;;;;;;4985448;28;21036;-69
2023/09/14 10:30:04;;;;;;;13.30;9.20;;;26.80;3.10;;;;;;4981416;28;20973;-69
2023/09/14 10:32:36;;;;;;;10.20;8.83;;;26.80;2.60;;;;;;4984711;28;20480;-69
2023/09/14 10:35:04;;;;;;;11.10;8.27;;;26.90;2.00;;;;;;4980255;28;21437;-68
2023/09/14 10:37:32;;;;;;;9.93;7.80;;;27.00;2.20;;;;;;4984282;28;20476;-68
2023/09/14 10:39:59;;;;;;;9.17;8.07;;;27.00;2.20;;;;;;4987352;28;20468;-68
2023/09/14 10:42:26;;;;;;;10.10;7.90;;;27.00;2.30;;;;;;4985768;28;20522;-67
2023/09/14 10:44:53;;;;;;;11.70;7.73;;;27.00;1.80;;;;;;4988890;28;20484;-68
2023/09/14 10:47:24;;;;;;;10.60;8.43;;;27.00;1.80;;;;;;4983477;28;20469;-68
2023/09/14 10:49:54;;;;;;;10.07;8.63;;;26.90;1.50;;;;;;4981722;28;20484;-68
2023/09/14 10:52:25;;;;;;;10.43;7.90;;;26.80;1.50;;;;;;4981596;28;20483;-68
2023/09/14 10:54:52;;;;;;;7.63;6.17;;;26.90;1.40;;;;;;4975913;28;20499;-69
2023/09/14 10:57:23;;;;;;;7.57;6.10;;;26.90;1.00;;;;;;4978757;28;20480;-68
2023/09/14 10:59:52;;;;;;;10.47;6.33;;;26.90;1.00;;;;;;5003265;23;20500;-68
2023/09/14 11:02:56;;;;;;;8.53;6.97;;;27.00;1.00;;;;;;4981677;28;20472;-67
2023/09/14 11:05:25;;;;;;;9.03;6.23;;;27.40;1.00;;;;;;4959559;28;21170;-66
2023/09/14 11:07:57;;;;;;;8.50;6.10;;;27.90;1.00;;;;;;4957749;28;20465;-65
2023/09/14 11:10:24;;;;;;;11.90;6.80;;;28.10;1.00;;;;;;4971489;28;20540;-65
2023/09/14 11:12:51;;;;;;;10.10;6.97;;;28.30;1.00;;;;;;4971633;28;20618;-66
2023/09/14 11:15:21;;;;;;;8.67;6.77;;;28.20;1.00;;;;;;4969650;28;20496;-66
2023/09/14 11:17:49;;;;;;;9.00;6.97;;;28.10;1.00;;;;;;4969100;28;21271;-65
2023/09/14 11:20:39;;;;;;;9.30;7.20;;;28.00;1.00;;;;;;4970248;28;20469;-65
2023/09/14 11:23:07;;;;;;;9.13;6.27;;;28.00;1.00;;;;;;4966933;28;20491;-66
2023/09/14 11:25:36;;;;;;;10.63;8.27;;;28.00;1.00;;;;;;4970202;28;20473;-67
2023/09/14 11:28:04;;;;;;;10.60;9.40;;;28.00;1.00;;;;;;4966942;28;21094;-66
2023/09/14 11:30:31;;;;;;;11.03;9.43;;;28.00;1.00;;;;;;4972166;28;20552;-65
2023/09/14 11:33:00;;;;;;;11.83;9.30;;;27.90;1.00;;;;;;4969860;28;20458;-67
2023/09/14 11:35:33;;;;;;;9.90;8.57;;;27.90;1.00;;;;;;4966490;28;20496;-66
2023/09/14 11:38:02;;;;;;;9.93;7.17;;;28.10;1.00;;;;;;4967804;28;20462;-65
2023/09/14 11:40:32;;;;;;;9.40;7.00;;;28.30;1.00;;;;;;4966021;28;20767;-65
2023/09/14 11:43:20;;;;;;;9.80;8.53;;;28.50;1.00;;;;;;4968107;28;20470;-66
2023/09/14 11:45:48;;;;;;;10.80;7.73;;;28.60;1.00;;;;;;4963344;28;20946;-64
2023/09/14 11:48:15;;;;;;;8.23;6.73;;;28.60;1.00;;;;;;4972044;28;20966;-65
2023/09/14 11:50:45;;;;;;;9.97;7.40;;;28.80;1.00;;;;;;4969213;28;20477;-66
2023/09/14 11:53:17;;;;;;;10.50;7.07;;;28.70;1.00;;;;;;4970549;28;20495;-68
2023/09/14 11:55:44;;;;;;;9.90;8.17;;;28.50;1.00;;;;;;4969383;28;20553;-68
2023/09/14 11:58:11;;;;;;;11.13;8.43;;;28.30;1.00;;;;;;4968387;28;20461;-68
2023/09/14 12:00:39;;;;;;;9.20;8.23;;;28.10;1.00;;;;;;4966103;28;20473;-68
2023/09/14 12:03:07;;;;;;;12.03;8.60;;;28.00;1.00;;;;;;4966123;28;20564;-69
2023/09/14 12:05:34;;;;;;;10.10;8.63;;;27.80;1.00;;;;;;4968491;28;20477;-67
2023/09/14 12:08:08;;;;;;;12.00;8.77;;;27.60;1.00;;;;;;4966555;28;20477;-67
2023/09/14 12:10:36;;;;;;;12.10;7.50;;;27.30;1.00;;;;;;4969571;28;20485;-66
2023/09/14 12:13:12;;;;;;;8.60;6.90;;;27.10;1.00;;;;;;4967262;28;20480;-66
2023/09/14 12:15:39;;;;;;;10.70;7.27;;;27.00;1.00;;;;;;4966841;28;20938;-66
2023/09/14 12:18:06;;;;;;;8.37;6.50;;;27.00;1.00;;;;;;4965220;28;20473;-66
2023/09/14 12:20:35;;;;;;;10.40;7.93;;;27.00;1.00;;;;;;4969838;28;20469;-66
2023/09/14 12:23:03;;;;;;;10.50;6.97;;;26.80;1.00;;;;;;4968525;28;20559;-67
2023/09/14 12:25:30;;;;;;;7.40;5.80;;;26.70;1.00;;;;;;4959942;28;20477;-68
2023/09/14 12:28:00;;;;;;;7.93;6.70;;;26.60;1.00;;;;;;4962125;28;20468;-68
2023/09/14 12:30:28;;;;;;;8.70;5.97;;;26.70;1.00;;;;;;4971562;28;20502;-68
2023/09/14 12:32:55;;;;;;;9.60;6.80;;;26.80;1.00;;;;;;4969879;28;20959;-68
2023/09/14 12:35:23;;;;;;;10.47;6.73;;;26.90;1.00;;;;;;4971988;28;20472;-67
2023/09/14 12:37:51;;;;;;;9.77;7.80;;;26.90;1.00;;;;;;4969641;28;20517;-68